Aquilla, Texas
Current Conditions -  °F | °C
As of 5:51 PM on Monday 20 Oct 2014 (Local Time) from KACT Reporting Station
Clear Clear  
Wind Chill: 26°   Ceiling: Unl
Heat Index: 27°   Visibility: 10mi
Dew Point: 14°   Wind: 5mph
Humidity: 48%   Direction: 110°ESE
Pressure: 30"   Gusts: NA
Location:  31.85°N, 97.22°W
Report Text: KACT 202251Z 11004KT 10SM CLR 26/14 A3000 RMK AO2 SLP155 T02610144
Loading
Personal Weather Stations






























Interactive Weather Map
Tropical Storm Tracking
New forecast layout! Learn more

10-Day Weather Forecast

Advertisements
Track Severe Weather on mobile